Terminal Aerodrome Forecast
Issued by NWS Grand Forks, ND

Home | Current Version | Previous Version | Text Only | Print | Product List | Glossary Off
Versions: 1 2 3 4 5 6 7 8 9 10 11 12 13 14 15 16 17 18 19 20 21 22 23 24 25 26

000
FTUS43 KFGF 242100 AAB
TAFFAR
TAF AMD
KFAR 242145Z 2422/2518 25008KT P6SM SCT015 BKN025
      TEMPO 2423/2501 VRB25KT 4SM -TSRA BKN010CB
     FM250100 26005KT P6SM SCT040
     FM251200 34006KT P6SM FEW040=

USA.gov is the U.S. government's official web portal to all federal, state and local government web resources and services.